<?xml version='1.0' encoding='UTF-8'?><gpx version="1.1" creator="JPX - https://github.com/jenetics/jpx" xmlns="http://www.topografix.com/GPX/1/1"><trk><trkseg><trkpt lat="45.4319134" lon="4.0712619"><ele>834.9999999999999</ele><time>2026-03-22T07:55:20.919Z</time></trkpt><trkpt lat="45.4319799" lon="4.0712769"><ele>835.0</ele><time>2026-03-22T07:56:02.919Z</time></trkpt><trkpt lat="45.4320499" lon="4.0712239"><ele>835.0</ele><time>2026-03-22T07:56:03.919Z</time></trkpt><trkpt lat="45.4321106" lon="4.0711896"><ele>835.0</ele><time>2026-03-22T07:56:04.919Z</time></trkpt><trkpt lat="45.4322002" lon="4.0710742"><ele>834.9999999999999</ele><time>2026-03-22T07:56:06.919Z</time></trkpt><trkpt lat="45.4322983" lon="4.0710349"><ele>835.0</ele><time>2026-03-22T07:56:08.919Z</time></trkpt><trkpt lat="45.4323654" lon="4.0710699"><ele>836.0</ele><time>2026-03-22T07:56:09.919Z</time></trkpt><trkpt lat="45.4324486" lon="4.0711142"><ele>837.0</ele><time>2026-03-22T07:56:10.919Z</time></trkpt><trkpt lat="45.4325343" lon="4.0711587"><ele>838.0</ele><time>2026-03-22T07:56:11.919Z</time></trkpt><trkpt lat="45.4326183" lon="4.0712003"><ele>839.0</ele><time>2026-03-22T07:56:12.919Z</time></trkpt><trkpt lat="45.4327073" lon="4.0712376"><ele>840.0</ele><time>2026-03-22T07:56:13.919Z</time></trkpt><trkpt lat="45.4327999" lon="4.0712756"><ele>840.0</ele><time>2026-03-22T07:56:14.919Z</time></trkpt><trkpt lat="45.4328752" lon="4.0713183"><ele>840.0</ele><time>2026-03-22T07:56:15.918Z</time></trkpt><trkpt lat="45.4329378" lon="4.0713676"><ele>840.0</ele><time>2026-03-22T07:56:16.919Z</time></trkpt><trkpt lat="45.4330225" lon="4.0714773"><ele>840.0</ele><time>2026-03-22T07:56:18.919Z</time></trkpt><trkpt lat="45.4330219" lon="4.0715907"><ele>840.0</ele><time>2026-03-22T07:56:19.919Z</time></trkpt><trkpt lat="45.4330105" lon="4.0717128"><ele>840.0</ele><time>2026-03-22T07:56:20.919Z</time></trkpt><trkpt lat="45.433013" lon="4.071821"><ele>839.5</ele><time>2026-03-22T07:56:21.919Z</time></trkpt><trkpt lat="45.4330511" lon="4.0719126"><ele>839.0</ele><time>2026-03-22T07:56:22.919Z</time></trkpt><trkpt lat="45.4331161" lon="4.0719785"><ele>838.5</ele><time>2026-03-22T07:56:23.919Z</time></trkpt><trkpt lat="45.4332061" lon="4.0720458"><ele>838.0</ele><time>2026-03-22T07:56:24.919Z</time></trkpt><trkpt lat="45.4332924" lon="4.0721051"><ele>837.5</ele><time>2026-03-22T07:56:25.919Z</time></trkpt><trkpt lat="45.4333676" lon="4.0721641"><ele>837.0</ele><time>2026-03-22T07:56:26.919Z</time></trkpt><trkpt lat="45.4334466" lon="4.0722265"><ele>837.0</ele><time>2026-03-22T07:56:27.919Z</time></trkpt><trkpt lat="45.4335407" lon="4.0722941"><ele>837.0</ele><time>2026-03-22T07:56:28.918Z</time></trkpt><trkpt lat="45.433632" lon="4.0723627"><ele>837.0</ele><time>2026-03-22T07:56:29.919Z</time></trkpt><trkpt lat="45.4337255" lon="4.0724312"><ele>837.0</ele><time>2026-03-22T07:56:30.918Z</time></trkpt><trkpt lat="45.4338299" lon="4.072504"><ele>837.0</ele><time>2026-03-22T07:56:31.919Z</time></trkpt><trkpt lat="45.4339357" lon="4.0725735"><ele>835.4000000000001</ele><time>2026-03-22T07:56:32.919Z</time></trkpt><trkpt lat="45.4340341" lon="4.0726171"><ele>833.8000000000001</ele><time>2026-03-22T07:56:33.919Z</time></trkpt><trkpt lat="45.4341385" lon="4.0726354"><ele>832.2</ele><time>2026-03-22T07:56:34.918Z</time></trkpt><trkpt lat="45.4342484" lon="4.0726272"><ele>830.6</ele><time>2026-03-22T07:56:35.919Z</time></trkpt><trkpt lat="45.4343619" lon="4.0725968"><ele>829.0</ele><time>2026-03-22T07:56:36.919Z</time></trkpt><trkpt lat="45.4344717" lon="4.0725386"><ele>829.0</ele><time>2026-03-22T07:56:37.918Z</time></trkpt><trkpt lat="45.4345869" lon="4.0724721"><ele>829.0</ele><time>2026-03-22T07:56:38.918Z</time></trkpt><trkpt lat="45.4346873" lon="4.0723957"><ele>829.0</ele><time>2026-03-22T07:56:39.919Z</time></trkpt><trkpt lat="45.4347831" lon="4.0723026"><ele>829.0</ele><time>2026-03-22T07:56:40.919Z</time></trkpt><trkpt lat="45.4348667" lon="4.0721968"><ele>828.8333333333333</ele><time>2026-03-22T07:56:41.919Z</time></trkpt><trkpt lat="45.4349256" lon="4.0720837"><ele>828.6666666666666</ele><time>2026-03-22T07:56:42.919Z</time></trkpt><trkpt lat="45.4349628" lon="4.0719843"><ele>828.5</ele><time>2026-03-22T07:56:43.919Z</time></trkpt><trkpt lat="45.434992" lon="4.0718908"><ele>828.3333333333333</ele><time>2026-03-22T07:56:44.919Z</time></trkpt><trkpt lat="45.4350359" lon="4.0717803"><ele>828.1666666666666</ele><time>2026-03-22T07:56:46.918Z</time></trkpt><trkpt lat="45.4350722" lon="4.0716393"><ele>828.0</ele><time>2026-03-22T07:56:49.919Z</time></trkpt><trkpt lat="45.4350753" lon="4.0714529"><ele>828.3333333333334</ele><time>2026-03-22T07:56:51.918Z</time></trkpt><trkpt lat="45.4350608" lon="4.0713507"><ele>828.6666666666667</ele><time>2026-03-22T07:56:52.919Z</time></trkpt><trkpt lat="45.435063" lon="4.0712397"><ele>829.0</ele><time>2026-03-22T07:56:53.919Z</time></trkpt><trkpt lat="45.4350993" lon="4.0711431"><ele>829.3333333333334</ele><time>2026-03-22T07:56:54.918Z</time></trkpt><trkpt lat="45.4351625" lon="4.071057"><ele>829.6666666666667</ele><time>2026-03-22T07:56:55.919Z</time></trkpt><trkpt lat="45.4352401" lon="4.0710002"><ele>830.0</ele><time>2026-03-22T07:56:56.918Z</time></trkpt><trkpt lat="45.43532" lon="4.070932"><ele>830.0</ele><time>2026-03-22T07:56:57.919Z</time></trkpt><trkpt lat="45.4354019" lon="4.07085"><ele>830.0</ele><time>2026-03-22T07:56:58.919Z</time></trkpt><trkpt lat="45.4354814" lon="4.0707583"><ele>830.0</ele><time>2026-03-22T07:56:59.919Z</time></trkpt><trkpt lat="45.4355568" lon="4.0706627"><ele>830.0</ele><time>2026-03-22T07:57:00.919Z</time></trkpt><trkpt lat="45.4356335" lon="4.0705827"><ele>830.0</ele><time>2026-03-22T07:57:01.919Z</time></trkpt><trkpt lat="45.4357082" lon="4.0704894"><ele>830.1666666666667</ele><time>2026-03-22T07:57:02.919Z</time></trkpt><trkpt lat="45.4357803" lon="4.0703919"><ele>830.3333333333334</ele><time>2026-03-22T07:57:03.919Z</time></trkpt><trkpt lat="45.4358474" lon="4.0703206"><ele>830.5</ele><time>2026-03-22T07:57:04.919Z</time></trkpt><trkpt lat="45.4359161" lon="4.070251"><ele>830.6666666666667</ele><time>2026-03-22T07:57:05.919Z</time></trkpt><trkpt lat="45.4360002" lon="4.0702318"><ele>830.8333333333334</ele><time>2026-03-22T07:57:06.919Z</time></trkpt><trkpt lat="45.4360828" lon="4.0701982"><ele>831.0</ele><time>2026-03-22T07:57:07.919Z</time></trkpt><trkpt lat="45.4361603" lon="4.0701602"><ele>830.9999999999999</ele><time>2026-03-22T07:57:08.919Z</time></trkpt><trkpt lat="45.4362135" lon="4.0701086"><ele>831.0</ele><time>2026-03-22T07:57:09.919Z</time></trkpt><trkpt lat="45.4362435" lon="4.0699641"><ele>831.0</ele><time>2026-03-22T07:57:11.919Z</time></trkpt><trkpt lat="45.4362203" lon="4.0698782"><ele>831.0</ele><time>2026-03-22T07:57:12.919Z</time></trkpt><trkpt lat="45.4361841" lon="4.0698009"><ele>831.0</ele><time>2026-03-22T07:57:13.919Z</time></trkpt><trkpt lat="45.4361428" lon="4.0697191"><ele>830.9999999999999</ele><time>2026-03-22T07:57:14.919Z</time></trkpt><trkpt lat="45.4360992" lon="4.0696424"><ele>831.0</ele><time>2026-03-22T07:57:15.919Z</time></trkpt><trkpt lat="45.4360575" lon="4.06955"><ele>832.1666666666666</ele><time>2026-03-22T07:57:16.918Z</time></trkpt><trkpt lat="45.4360205" lon="4.0694532"><ele>833.3333333333333</ele><time>2026-03-22T07:57:17.919Z</time></trkpt><trkpt lat="45.4359802" lon="4.0693556"><ele>834.5</ele><time>2026-03-22T07:57:18.918Z</time></trkpt><trkpt lat="45.4359307" lon="4.0692599"><ele>835.6666666666666</ele><time>2026-03-22T07:57:19.919Z</time></trkpt><trkpt lat="45.4358822" lon="4.0691674"><ele>836.8333333333333</ele><time>2026-03-22T07:57:20.919Z</time></trkpt><trkpt lat="45.4358213" lon="4.0690531"><ele>838.0</ele><time>2026-03-22T07:57:21.919Z</time></trkpt><trkpt lat="45.4357731" lon="4.0689731"><ele>838.4</ele><time>2026-03-22T07:57:22.919Z</time></trkpt><trkpt lat="45.4357276" lon="4.0688868"><ele>838.8</ele><time>2026-03-22T07:57:23.919Z</time></trkpt><trkpt lat="45.4356729" lon="4.0687819"><ele>839.2</ele><time>2026-03-22T07:57:24.918Z</time></trkpt><trkpt lat="45.4356067" lon="4.0686693"><ele>839.6</ele><time>2026-03-22T07:57:25.918Z</time></trkpt><trkpt lat="45.4355333" lon="4.0685444"><ele>840.0</ele><time>2026-03-22T07:57:26.919Z</time></trkpt><trkpt lat="45.4354737" lon="4.0684317"><ele>841.0</ele><time>2026-03-22T07:57:27.919Z</time></trkpt><trkpt lat="45.4354019" lon="4.0683172"><ele>842.0</ele><time>2026-03-22T07:57:28.919Z</time></trkpt><trkpt lat="45.4353508" lon="4.0682414"><ele>843.0</ele><time>2026-03-22T07:57:29.919Z</time></trkpt><trkpt lat="45.4352887" lon="4.0681426"><ele>844.0</ele><time>2026-03-22T07:57:30.918Z</time></trkpt><trkpt lat="45.4352321" lon="4.0680776"><ele>845.0</ele><time>2026-03-22T07:57:31.919Z</time></trkpt><trkpt lat="45.4351818" lon="4.0680097"><ele>846.0</ele><time>2026-03-22T07:57:32.919Z</time></trkpt><trkpt lat="45.4351203" lon="4.0679556"><ele>847.1999999999999</ele><time>2026-03-22T07:57:33.919Z</time></trkpt><trkpt lat="45.4350277" lon="4.0678364"><ele>848.4</ele><time>2026-03-22T07:57:35.919Z</time></trkpt><trkpt lat="45.4349648" lon="4.067719"><ele>849.6</ele><time>2026-03-22T07:57:36.918Z</time></trkpt><trkpt lat="45.4349146" lon="4.0676255"><ele>850.8</ele><time>2026-03-22T07:57:37.919Z</time></trkpt><trkpt lat="45.434866" lon="4.0675459"><ele>852.0</ele><time>2026-03-22T07:57:38.919Z</time></trkpt><trkpt lat="45.4348144" lon="4.0674452"><ele>852.6</ele><time>2026-03-22T07:57:39.919Z</time></trkpt><trkpt lat="45.4347492" lon="4.0673364"><ele>853.2</ele><time>2026-03-22T07:57:40.919Z</time></trkpt><trkpt lat="45.4346819" lon="4.0672327"><ele>853.8</ele><time>2026-03-22T07:57:41.919Z</time></trkpt><trkpt lat="45.4346093" lon="4.0671238"><ele>854.4</ele><time>2026-03-22T07:57:42.918Z</time></trkpt><trkpt lat="45.4345349" lon="4.0670012"><ele>855.0</ele><time>2026-03-22T07:57:43.919Z</time></trkpt><trkpt lat="45.4344567" lon="4.0668801"><ele>856.0</ele><time>2026-03-22T07:57:44.919Z</time></trkpt><trkpt lat="45.434376" lon="4.0667562"><ele>857.0</ele><time>2026-03-22T07:57:45.919Z</time></trkpt><trkpt lat="45.4342932" lon="4.0666332"><ele>858.0</ele><time>2026-03-22T07:57:46.918Z</time></trkpt><trkpt lat="45.4342094" lon="4.0665013"><ele>859.0</ele><time>2026-03-22T07:57:47.919Z</time></trkpt><trkpt lat="45.4341293" lon="4.0663723"><ele>859.25</ele><time>2026-03-22T07:57:48.919Z</time></trkpt><trkpt lat="45.434049" lon="4.066233"><ele>859.5</ele><time>2026-03-22T07:57:49.919Z</time></trkpt><trkpt lat="45.4339679" lon="4.0660783"><ele>859.75</ele><time>2026-03-22T07:57:50.919Z</time></trkpt><trkpt lat="45.4338909" lon="4.0659133"><ele>860.0</ele><time>2026-03-22T07:57:51.919Z</time></trkpt><trkpt lat="45.4338108" lon="4.0657488"><ele>861.75</ele><time>2026-03-22T07:57:52.918Z</time></trkpt><trkpt lat="45.4337329" lon="4.0655744"><ele>863.5</ele><time>2026-03-22T07:57:53.919Z</time></trkpt><trkpt lat="45.4336579" lon="4.0653919"><ele>865.25</ele><time>2026-03-22T07:57:54.919Z</time></trkpt><trkpt lat="45.4335833" lon="4.0652096"><ele>867.0</ele><time>2026-03-22T07:57:55.919Z</time></trkpt><trkpt lat="45.4335128" lon="4.0650333"><ele>866.75</ele><time>2026-03-22T07:57:56.919Z</time></trkpt><trkpt lat="45.4334463" lon="4.0648585"><ele>866.5</ele><time>2026-03-22T07:57:57.919Z</time></trkpt><trkpt lat="45.4333875" lon="4.0646829"><ele>866.25</ele><time>2026-03-22T07:57:58.919Z</time></trkpt><trkpt lat="45.433332" lon="4.0645032"><ele>866.0</ele><time>2026-03-22T07:57:59.919Z</time></trkpt><trkpt lat="45.43328" lon="4.0643131"><ele>866.0</ele><time>2026-03-22T07:58:00.918Z</time></trkpt><trkpt lat="45.433232" lon="4.0641339"><ele>866.0</ele><time>2026-03-22T07:58:01.919Z</time></trkpt><trkpt lat="45.4331856" lon="4.0639475"><ele>866.0</ele><time>2026-03-22T07:58:02.919Z</time></trkpt><trkpt lat="45.433131" lon="4.0637626"><ele>866.0</ele><time>2026-03-22T07:58:03.918Z</time></trkpt><trkpt lat="45.4330754" lon="4.0635792"><ele>865.75</ele><time>2026-03-22T07:58:04.919Z</time></trkpt><trkpt lat="45.4330227" lon="4.0633927"><ele>865.5</ele><time>2026-03-22T07:58:05.919Z</time></trkpt><trkpt lat="45.4329682" lon="4.0632173"><ele>865.25</ele><time>2026-03-22T07:58:06.919Z</time></trkpt><trkpt lat="45.4329066" lon="4.0630372"><ele>865.0</ele><time>2026-03-22T07:58:07.919Z</time></trkpt><trkpt lat="45.4328476" lon="4.0628675"><ele>867.0</ele><time>2026-03-22T07:58:08.919Z</time></trkpt><trkpt lat="45.4327871" lon="4.0626922"><ele>869.0</ele><time>2026-03-22T07:58:09.919Z</time></trkpt><trkpt lat="45.4327316" lon="4.062506"><ele>871.0</ele><time>2026-03-22T07:58:10.919Z</time></trkpt><trkpt lat="45.4326808" lon="4.0623172"><ele>873.0</ele><time>2026-03-22T07:58:11.919Z</time></trkpt><trkpt lat="45.432639" lon="4.0621394"><ele>873.8</ele><time>2026-03-22T07:58:12.919Z</time></trkpt><trkpt lat="45.4325962" lon="4.0619752"><ele>874.5999999999999</ele><time>2026-03-22T07:58:13.919Z</time></trkpt><trkpt lat="45.4325617" lon="4.0618401"><ele>875.4000000000001</ele><time>2026-03-22T07:58:14.918Z</time></trkpt><trkpt lat="45.4325287" lon="4.0617224"><ele>876.2</ele><time>2026-03-22T07:58:15.919Z</time></trkpt><trkpt lat="45.432529" lon="4.0615894"><ele>877.0</ele><time>2026-03-22T07:58:17.919Z</time></trkpt><trkpt lat="45.4326448" lon="4.0614985"><ele>877.2</ele><time>2026-03-22T07:58:19.919Z</time></trkpt><trkpt lat="45.4327147" lon="4.0614475"><ele>877.4000000000001</ele><time>2026-03-22T07:58:20.919Z</time></trkpt><trkpt lat="45.4328352" lon="4.0614083"><ele>877.5999999999999</ele><time>2026-03-22T07:58:21.919Z</time></trkpt><trkpt lat="45.4329173" lon="4.0613489"><ele>877.8</ele><time>2026-03-22T07:58:22.919Z</time></trkpt><trkpt lat="45.433016" lon="4.0613023"><ele>878.0</ele><time>2026-03-22T07:58:23.919Z</time></trkpt><trkpt lat="45.4331196" lon="4.0612401"><ele>878.0</ele><time>2026-03-22T07:58:24.919Z</time></trkpt><trkpt lat="45.43325" lon="4.0611885"><ele>878.0</ele><time>2026-03-22T07:58:25.919Z</time></trkpt><trkpt lat="45.4333689" lon="4.0611471"><ele>878.0</ele><time>2026-03-22T07:58:26.918Z</time></trkpt><trkpt lat="45.4334791" lon="4.0611182"><ele>878.0</ele><time>2026-03-22T07:58:27.919Z</time></trkpt><trkpt lat="45.4335656" lon="4.0610922"><ele>878.0000000000001</ele><time>2026-03-22T07:58:28.919Z</time></trkpt><trkpt lat="45.4336352" lon="4.0610517"><ele>878.0</ele><time>2026-03-22T07:58:29.919Z</time></trkpt><trkpt lat="45.4337008" lon="4.0610122"><ele>878.0</ele><time>2026-03-22T07:58:30.919Z</time></trkpt><trkpt lat="45.4337611" lon="4.0609614"><ele>878.0</ele><time>2026-03-22T07:58:31.918Z</time></trkpt><trkpt lat="45.4338261" lon="4.0608907"><ele>878.0000000000001</ele><time>2026-03-22T07:58:32.919Z</time></trkpt><trkpt lat="45.4339191" lon="4.060784"><ele>878.0</ele><time>2026-03-22T07:58:33.919Z</time></trkpt><trkpt lat="45.4339956" lon="4.0606578"><ele>878.2</ele><time>2026-03-22T07:58:34.919Z</time></trkpt><trkpt lat="45.4340902" lon="4.0605617"><ele>878.4</ele><time>2026-03-22T07:58:35.919Z</time></trkpt><trkpt lat="45.4341739" lon="4.0604695"><ele>878.6000000000001</ele><time>2026-03-22T07:58:36.919Z</time></trkpt><trkpt lat="45.434261" lon="4.0604007"><ele>878.8000000000001</ele><time>2026-03-22T07:58:37.919Z</time></trkpt><trkpt lat="45.434348" lon="4.0603285"><ele>879.0</ele><time>2026-03-22T07:58:38.919Z</time></trkpt><trkpt lat="45.4344407" lon="4.0602334"><ele>879.0</ele><time>2026-03-22T07:58:39.919Z</time></trkpt><trkpt lat="45.4345393" lon="4.0601481"><ele>879.0</ele><time>2026-03-22T07:58:40.919Z</time></trkpt><trkpt lat="45.4346214" lon="4.0600666"><ele>879.0</ele><time>2026-03-22T07:58:41.918Z</time></trkpt><trkpt lat="45.4347249" lon="4.0599963"><ele>879.0</ele><time>2026-03-22T07:58:42.919Z</time></trkpt><trkpt lat="45.4348358" lon="4.0599318"><ele>877.5</ele><time>2026-03-22T07:58:43.919Z</time></trkpt><trkpt lat="45.4349579" lon="4.0598837"><ele>876.0</ele><time>2026-03-22T07:58:44.919Z</time></trkpt><trkpt lat="45.4350905" lon="4.059871"><ele>874.5</ele><time>2026-03-22T07:58:45.919Z</time></trkpt><trkpt lat="45.4351913" lon="4.0598625"><ele>873.0</ele><time>2026-03-22T07:58:46.919Z</time></trkpt><trkpt lat="45.4352892" lon="4.0598452"><ele>873.0</ele><time>2026-03-22T07:58:47.919Z</time></trkpt><trkpt lat="45.4353957" lon="4.0598364"><ele>873.0</ele><time>2026-03-22T07:58:48.919Z</time></trkpt><trkpt lat="45.4355001" lon="4.0598178"><ele>873.0</ele><time>2026-03-22T07:58:49.919Z</time></trkpt><trkpt lat="45.4355854" lon="4.0597664"><ele>873.0</ele><time>2026-03-22T07:58:50.919Z</time></trkpt><trkpt lat="45.4356781" lon="4.0597139"><ele>873.0</ele><time>2026-03-22T07:58:51.919Z</time></trkpt><trkpt lat="45.4357692" lon="4.0596976"><ele>869.8</ele><time>2026-03-22T07:58:52.918Z</time></trkpt><trkpt lat="45.4358697" lon="4.0596439"><ele>866.5999999999999</ele><time>2026-03-22T07:58:53.919Z</time></trkpt><trkpt lat="45.4359593" lon="4.0596609"><ele>863.4000000000001</ele><time>2026-03-22T07:58:54.919Z</time></trkpt><trkpt lat="45.4360617" lon="4.0596194"><ele>860.2</ele><time>2026-03-22T07:58:55.919Z</time></trkpt><trkpt lat="45.4361686" lon="4.0595663"><ele>857.0</ele><time>2026-03-22T07:58:56.919Z</time></trkpt><trkpt lat="45.4362709" lon="4.0594777"><ele>851.6666666666667</ele><time>2026-03-22T07:58:57.918Z</time></trkpt><trkpt lat="45.4363873" lon="4.0593432"><ele>846.3333333333333</ele><time>2026-03-22T07:58:58.918Z</time></trkpt><trkpt lat="45.436529" lon="4.0592553"><ele>841.0</ele><time>2026-03-22T07:58:59.919Z</time></trkpt><trkpt lat="45.4366534" lon="4.059141"><ele>842.5</ele><time>2026-03-22T07:59:00.919Z</time></trkpt><trkpt lat="45.4367622" lon="4.0590396"><ele>844.0</ele><time>2026-03-22T07:59:01.919Z</time></trkpt><trkpt lat="45.4368585" lon="4.0589373"><ele>845.5</ele><time>2026-03-22T07:59:02.919Z</time></trkpt><trkpt lat="45.4369707" lon="4.058863"><ele>847.0</ele><time>2026-03-22T07:59:03.919Z</time></trkpt><trkpt lat="45.4370138" lon="4.0587198"><ele>847.0</ele><time>2026-03-22T07:59:04.918Z</time></trkpt><trkpt lat="45.4370729" lon="4.0585796"><ele>847.0</ele><time>2026-03-22T07:59:05.919Z</time></trkpt><trkpt lat="45.4371522" lon="4.0584418"><ele>847.0</ele><time>2026-03-22T07:59:06.919Z</time></trkpt><trkpt lat="45.437236" lon="4.0583829"><ele>847.0</ele><time>2026-03-22T07:59:07.919Z</time></trkpt><trkpt lat="45.4373358" lon="4.0583204"><ele>847.0</ele><time>2026-03-22T07:59:08.919Z</time></trkpt><trkpt lat="45.437436" lon="4.0582708"><ele>844.2</ele><time>2026-03-22T07:59:09.919Z</time></trkpt><trkpt lat="45.4375352" lon="4.0582493"><ele>841.4000000000001</ele><time>2026-03-22T07:59:10.919Z</time></trkpt><trkpt lat="45.437598" lon="4.0581892"><ele>838.5999999999999</ele><time>2026-03-22T07:59:11.919Z</time></trkpt><trkpt lat="45.43766" lon="4.0580814"><ele>835.8</ele><time>2026-03-22T07:59:12.919Z</time></trkpt><trkpt lat="45.4377111" lon="4.0579781"><ele>833.0</ele><time>2026-03-22T07:59:13.919Z</time></trkpt><trkpt lat="45.4377899" lon="4.0578814"><ele>833.0</ele><time>2026-03-22T07:59:14.919Z</time></trkpt><trkpt lat="45.4378648" lon="4.0578031"><ele>833.0</ele><time>2026-03-22T07:59:15.919Z</time></trkpt><trkpt lat="45.4379447" lon="4.0577244"><ele>833.0</ele><time>2026-03-22T07:59:16.919Z</time></trkpt><trkpt lat="45.4380228" lon="4.0576767"><ele>833.0</ele><time>2026-03-22T07:59:17.918Z</time></trkpt><trkpt lat="45.438104" lon="4.0576309"><ele>833.0</ele><time>2026-03-22T07:59:18.919Z</time></trkpt><trkpt lat="45.4382051" lon="4.0576062"><ele>830.25</ele><time>2026-03-22T07:59:19.918Z</time></trkpt><trkpt lat="45.4383236" lon="4.0575923"><ele>827.5</ele><time>2026-03-22T07:59:20.919Z</time></trkpt><trkpt lat="45.4384185" lon="4.0575998"><ele>824.75</ele><time>2026-03-22T07:59:21.919Z</time></trkpt><trkpt lat="45.4385326" lon="4.0576514"><ele>822.0</ele><time>2026-03-22T07:59:22.919Z</time></trkpt><trkpt lat="45.4386476" lon="4.0576878"><ele>822.0</ele><time>2026-03-22T07:59:23.919Z</time></trkpt><trkpt lat="45.4387279" lon="4.0577139"><ele>822.0</ele><time>2026-03-22T07:59:24.919Z</time></trkpt><trkpt lat="45.4388227" lon="4.0576793"><ele>822.0</ele><time>2026-03-22T07:59:25.918Z</time></trkpt><trkpt lat="45.4389522" lon="4.0576628"><ele>822.0</ele><time>2026-03-22T07:59:26.919Z</time></trkpt><trkpt lat="45.4390901" lon="4.0576593"><ele>822.0</ele><time>2026-03-22T07:59:27.919Z</time></trkpt><trkpt lat="45.4392121" lon="4.0576215"><ele>819.4000000000001</ele><time>2026-03-22T07:59:28.919Z</time></trkpt><trkpt lat="45.4393151" lon="4.0575956"><ele>816.8000000000001</ele><time>2026-03-22T07:59:29.919Z</time></trkpt><trkpt lat="45.4393928" lon="4.0575486"><ele>814.2</ele><time>2026-03-22T07:59:30.919Z</time></trkpt><trkpt lat="45.4394875" lon="4.0575007"><ele>811.6</ele><time>2026-03-22T07:59:31.918Z</time></trkpt><trkpt lat="45.4395603" lon="4.0574468"><ele>809.0</ele><time>2026-03-22T07:59:32.919Z</time></trkpt><trkpt lat="45.4396406" lon="4.0573985"><ele>806.5</ele><time>2026-03-22T07:59:33.919Z</time></trkpt><trkpt lat="45.439732" lon="4.0573432"><ele>804.0</ele><time>2026-03-22T07:59:35.919Z</time></trkpt><trkpt lat="45.4398105" lon="4.0572326"><ele>801.5</ele><time>2026-03-22T07:59:37.918Z</time></trkpt><trkpt lat="45.4398164" lon="4.0570312"><ele>799.0</ele><time>2026-03-22T07:59:39.919Z</time></trkpt><trkpt lat="45.4398483" lon="4.0568653"><ele>798.9999999999999</ele><time>2026-03-22T07:59:41.919Z</time></trkpt><trkpt lat="45.4398287" lon="4.0567789"><ele>799.0</ele><time>2026-03-22T07:59:43.919Z</time></trkpt><trkpt lat="45.4396977" lon="4.0567402"><ele>799.0</ele><time>2026-03-22T07:59:46.919Z</time></trkpt><trkpt lat="45.4396284" lon="4.0567054"><ele>799.0</ele><time>2026-03-22T07:59:47.919Z</time></trkpt><trkpt lat="45.4395818" lon="4.0566162"><ele>798.9999999999999</ele><time>2026-03-22T07:59:48.918Z</time></trkpt><trkpt lat="45.4395403" lon="4.0565328"><ele>799.0</ele><time>2026-03-22T07:59:49.919Z</time></trkpt><trkpt lat="45.4394972" lon="4.0563444"><ele>800.8000000000001</ele><time>2026-03-22T07:59:51.919Z</time></trkpt><trkpt lat="45.4394693" lon="4.0562045"><ele>802.6</ele><time>2026-03-22T07:59:52.919Z</time></trkpt><trkpt lat="45.439441" lon="4.0561092"><ele>804.4</ele><time>2026-03-22T07:59:53.918Z</time></trkpt><trkpt lat="45.4393888" lon="4.0559751"><ele>806.2</ele><time>2026-03-22T07:59:54.919Z</time></trkpt><trkpt lat="45.4393417" lon="4.0558319"><ele>808.0</ele><time>2026-03-22T07:59:55.919Z</time></trkpt><trkpt lat="45.439229" lon="4.0555365"><ele>808.1666666666666</ele><time>2026-03-22T07:59:57.919Z</time></trkpt><trkpt lat="45.4391706" lon="4.0553943"><ele>808.3333333333333</ele><time>2026-03-22T07:59:58.919Z</time></trkpt><trkpt lat="45.4391381" lon="4.0552946"><ele>808.5</ele><time>2026-03-22T07:59:59.919Z</time></trkpt><trkpt lat="45.4391173" lon="4.0552033"><ele>808.6666666666667</ele><time>2026-03-22T08:00:00.919Z</time></trkpt><trkpt lat="45.4390814" lon="4.0551285"><ele>808.8333333333334</ele><time>2026-03-22T08:00:01.919Z</time></trkpt><trkpt lat="45.4390522" lon="4.0550275"><ele>809.0</ele><time>2026-03-22T08:00:02.919Z</time></trkpt><trkpt lat="45.4389937" lon="4.0549069"><ele>808.6</ele><time>2026-03-22T08:00:03.919Z</time></trkpt><trkpt lat="45.4389391" lon="4.0547878"><ele>808.2</ele><time>2026-03-22T08:00:04.919Z</time></trkpt><trkpt lat="45.4388863" lon="4.0546821"><ele>807.8000000000001</ele><time>2026-03-22T08:00:05.919Z</time></trkpt><trkpt lat="45.4388363" lon="4.054554"><ele>807.4000000000001</ele><time>2026-03-22T08:00:06.919Z</time></trkpt><trkpt lat="45.4387784" lon="4.0544197"><ele>807.0</ele><time>2026-03-22T08:00:07.919Z</time></trkpt><trkpt lat="45.4386887" lon="4.0542859"><ele>810.6</ele><time>2026-03-22T08:00:08.918Z</time></trkpt><trkpt lat="45.4386193" lon="4.0541474"><ele>814.2</ele><time>2026-03-22T08:00:09.919Z</time></trkpt><trkpt lat="45.4385429" lon="4.0540412"><ele>817.8</ele><time>2026-03-22T08:00:10.919Z</time></trkpt><trkpt lat="45.4384613" lon="4.0539288"><ele>821.4</ele><time>2026-03-22T08:00:11.919Z</time></trkpt><trkpt lat="45.4384031" lon="4.0538486"><ele>825.0</ele><time>2026-03-22T08:00:12.919Z</time></trkpt><trkpt lat="45.4383208" lon="4.0537886"><ele>825.0</ele><time>2026-03-22T08:00:13.919Z</time></trkpt><trkpt lat="45.4382494" lon="4.0537594"><ele>825.0</ele><time>2026-03-22T08:00:14.919Z</time></trkpt><trkpt lat="45.4381454" lon="4.0537097"><ele>825.0</ele><time>2026-03-22T08:00:15.919Z</time></trkpt><trkpt lat="45.4380398" lon="4.0536727"><ele>825.0</ele><time>2026-03-22T08:00:16.919Z</time></trkpt><trkpt lat="45.4379564" lon="4.0536067"><ele>825.0</ele><time>2026-03-22T08:00:17.919Z</time></trkpt><trkpt lat="45.4378725" lon="4.0535737"><ele>827.25</ele><time>2026-03-22T08:00:18.919Z</time></trkpt><trkpt lat="45.4377524" lon="4.0535235"><ele>829.5</ele><time>2026-03-22T08:00:19.919Z</time></trkpt><trkpt lat="45.4376312" lon="4.0534568"><ele>831.75</ele><time>2026-03-22T08:00:20.919Z</time></trkpt><trkpt lat="45.4375133" lon="4.053348"><ele>834.0</ele><time>2026-03-22T08:00:21.919Z</time></trkpt><trkpt lat="45.4373961" lon="4.0532774"><ele>834.0</ele><time>2026-03-22T08:00:22.919Z</time></trkpt><trkpt lat="45.4373035" lon="4.0531978"><ele>834.0</ele><time>2026-03-22T08:00:23.919Z</time></trkpt><trkpt lat="45.4371843" lon="4.0531249"><ele>834.0</ele><time>2026-03-22T08:00:24.918Z</time></trkpt><trkpt lat="45.4370304" lon="4.0530421"><ele>834.0</ele><time>2026-03-22T08:00:25.918Z</time></trkpt><trkpt lat="45.4368787" lon="4.0529691"><ele>838.6666666666667</ele><time>2026-03-22T08:00:26.919Z</time></trkpt><trkpt lat="45.4367244" lon="4.0529043"><ele>843.3333333333334</ele><time>2026-03-22T08:00:27.919Z</time></trkpt><trkpt lat="45.4365853" lon="4.0528341"><ele>848.0</ele><time>2026-03-22T08:00:28.919Z</time></trkpt><trkpt lat="45.4364475" lon="4.0527771"><ele>848.0</ele><time>2026-03-22T08:00:29.919Z</time></trkpt><trkpt lat="45.4363513" lon="4.0527449"><ele>848.0</ele><time>2026-03-22T08:00:30.919Z</time></trkpt><trkpt lat="45.4362397" lon="4.0527082"><ele>848.0</ele><time>2026-03-22T08:00:31.919Z</time></trkpt><trkpt lat="45.4361512" lon="4.0526845"><ele>848.0</ele><time>2026-03-22T08:00:32.919Z</time></trkpt><trkpt lat="45.4360484" lon="4.0526667"><ele>848.0</ele><time>2026-03-22T08:00:33.918Z</time></trkpt><trkpt lat="45.435949" lon="4.0526431"><ele>849.5999999999999</ele><time>2026-03-22T08:00:34.918Z</time></trkpt><trkpt lat="45.4358647" lon="4.0526485"><ele>851.1999999999999</ele><time>2026-03-22T08:00:35.919Z</time></trkpt><trkpt lat="45.4357946" lon="4.0526616"><ele>852.8</ele><time>2026-03-22T08:00:36.918Z</time></trkpt><trkpt lat="45.4356864" lon="4.0526718"><ele>854.4</ele><time>2026-03-22T08:00:37.919Z</time></trkpt><trkpt lat="45.4355826" lon="4.0526938"><ele>856.0</ele><time>2026-03-22T08:00:38.919Z</time></trkpt><trkpt lat="45.4354798" lon="4.0526904"><ele>859.0</ele><time>2026-03-22T08:00:39.919Z</time></trkpt><trkpt lat="45.4353636" lon="4.0526713"><ele>862.0</ele><time>2026-03-22T08:00:40.919Z</time></trkpt><trkpt lat="45.435242" lon="4.0525723"><ele>865.0</ele><time>2026-03-22T08:00:41.919Z</time></trkpt><trkpt lat="45.4351404" lon="4.0525083"><ele>868.0</ele><time>2026-03-22T08:00:42.919Z</time></trkpt><trkpt lat="45.4350381" lon="4.0524418"><ele>867.9999999999999</ele><time>2026-03-22T08:00:43.919Z</time></trkpt><trkpt lat="45.4349499" lon="4.0523964"><ele>868.0</ele><time>2026-03-22T08:00:44.919Z</time></trkpt><trkpt lat="45.4348707" lon="4.0523527"><ele>868.0</ele><time>2026-03-22T08:00:45.919Z</time></trkpt><trkpt lat="45.4348069" lon="4.0522999"><ele>868.0</ele><time>2026-03-22T08:00:46.919Z</time></trkpt><trkpt lat="45.4347552" lon="4.0521968"><ele>867.9999999999999</ele><time>2026-03-22T08:00:47.919Z</time></trkpt><trkpt lat="45.4346977" lon="4.0521075"><ele>868.0</ele><time>2026-03-22T08:00:48.919Z</time></trkpt><trkpt lat="45.4346142" lon="4.0520047"><ele>869.2</ele><time>2026-03-22T08:00:50.919Z</time></trkpt><trkpt lat="45.4345338" lon="4.0519742"><ele>870.4</ele><time>2026-03-22T08:00:52.919Z</time></trkpt><trkpt lat="45.4344176" lon="4.0520112"><ele>871.6000000000001</ele><time>2026-03-22T08:00:54.918Z</time></trkpt><trkpt lat="45.4343422" lon="4.0521043"><ele>872.8000000000001</ele><time>2026-03-22T08:00:56.919Z</time></trkpt><trkpt lat="45.434228" lon="4.0521622"><ele>874.0</ele><time>2026-03-22T08:00:58.919Z</time></trkpt><trkpt lat="45.4341617" lon="4.0521795"><ele>874.0</ele><time>2026-03-22T08:00:59.919Z</time></trkpt><trkpt lat="45.4340856" lon="4.0521934"><ele>874.0000000000001</ele><time>2026-03-22T08:01:00.919Z</time></trkpt><trkpt lat="45.4339545" lon="4.0522126"><ele>874.0000000000001</ele><time>2026-03-22T08:01:02.919Z</time></trkpt><trkpt lat="45.4338756" lon="4.052217"><ele>874.0</ele><time>2026-03-22T08:01:03.919Z</time></trkpt><trkpt lat="45.4337848" lon="4.052234"><ele>874.0</ele><time>2026-03-22T08:01:04.919Z</time></trkpt><trkpt lat="45.4337093" lon="4.0522598"><ele>875.4000000000001</ele><time>2026-03-22T08:01:05.919Z</time></trkpt><trkpt lat="45.4336304" lon="4.0522876"><ele>876.8000000000001</ele><time>2026-03-22T08:01:06.918Z</time></trkpt><trkpt lat="45.4335437" lon="4.0523072"><ele>878.1999999999999</ele><time>2026-03-22T08:01:07.919Z</time></trkpt><trkpt lat="45.4334513" lon="4.0523253"><ele>879.5999999999999</ele><time>2026-03-22T08:01:08.918Z</time></trkpt><trkpt lat="45.4333435" lon="4.0523446"><ele>881.0</ele><time>2026-03-22T08:01:09.919Z</time></trkpt><trkpt lat="45.4332344" lon="4.0523365"><ele>881.0000000000001</ele><time>2026-03-22T08:01:10.919Z</time></trkpt><trkpt lat="45.433153" lon="4.0523457"><ele>881.0</ele><time>2026-03-22T08:01:11.919Z</time></trkpt><trkpt lat="45.4330879" lon="4.0523673"><ele>881.0</ele><time>2026-03-22T08:01:12.919Z</time></trkpt><trkpt lat="45.4330345" lon="4.0524499"><ele>881.0</ele><time>2026-03-22T08:01:13.919Z</time></trkpt><trkpt lat="45.4329976" lon="4.0525894"><ele>881.0000000000001</ele><time>2026-03-22T08:01:14.919Z</time></trkpt><trkpt lat="45.4329418" lon="4.052687"><ele>881.0</ele><time>2026-03-22T08:01:15.919Z</time></trkpt><trkpt lat="45.4327941" lon="4.0527383"><ele>883.75</ele><time>2026-03-22T08:01:17.919Z</time></trkpt><trkpt lat="45.4326619" lon="4.0527496"><ele>886.5</ele><time>2026-03-22T08:01:18.918Z</time></trkpt><trkpt lat="45.4325111" lon="4.0527666"><ele>889.25</ele><time>2026-03-22T08:01:19.919Z</time></trkpt><trkpt lat="45.432399" lon="4.0527666"><ele>892.0</ele><time>2026-03-22T08:01:20.919Z</time></trkpt><trkpt lat="45.4323121" lon="4.0527811"><ele>892.0</ele><time>2026-03-22T08:01:21.919Z</time></trkpt><trkpt lat="45.4322553" lon="4.0528204"><ele>892.0</ele><time>2026-03-22T08:01:22.919Z</time></trkpt><trkpt lat="45.4321915" lon="4.0529233"><ele>892.0</ele><time>2026-03-22T08:01:23.919Z</time></trkpt><trkpt lat="45.4321305" lon="4.05305"><ele>892.0</ele><time>2026-03-22T08:01:24.918Z</time></trkpt><trkpt lat="45.432074" lon="4.0531745"><ele>892.0</ele><time>2026-03-22T08:01:25.918Z</time></trkpt><trkpt lat="45.4320102" lon="4.0532804"><ele>894.6666666666666</ele><time>2026-03-22T08:01:26.919Z</time></trkpt><trkpt lat="45.4319472" lon="4.0533973"><ele>897.3333333333333</ele><time>2026-03-22T08:01:27.919Z</time></trkpt><trkpt lat="45.4318877" lon="4.0534718"><ele>900.0</ele><time>2026-03-22T08:01:28.919Z</time></trkpt><trkpt lat="45.4318308" lon="4.053539"><ele>902.6666666666667</ele><time>2026-03-22T08:01:29.919Z</time></trkpt><trkpt lat="45.4317721" lon="4.053598"><ele>905.3333333333334</ele><time>2026-03-22T08:01:30.919Z</time></trkpt><trkpt lat="45.4317187" lon="4.0536575"><ele>908.0</ele><time>2026-03-22T08:01:31.918Z</time></trkpt><trkpt lat="45.4316276" lon="4.0537596"><ele>908.0000000000001</ele><time>2026-03-22T08:01:33.918Z</time></trkpt><trkpt lat="45.4315721" lon="4.053822"><ele>908.0</ele><time>2026-03-22T08:01:34.919Z</time></trkpt><trkpt lat="45.4315207" lon="4.0538739"><ele>908.0</ele><time>2026-03-22T08:01:35.919Z</time></trkpt><trkpt lat="45.4314435" lon="4.0538882"><ele>908.0</ele><time>2026-03-22T08:01:36.919Z</time></trkpt><trkpt lat="45.4313095" lon="4.0539435"><ele>908.0000000000001</ele><time>2026-03-22T08:01:37.919Z</time></trkpt><trkpt lat="45.4312258" lon="4.0539699"><ele>908.0</ele><time>2026-03-22T08:01:38.919Z</time></trkpt><trkpt lat="45.4311213" lon="4.0540017"><ele>910.8</ele><time>2026-03-22T08:01:39.919Z</time></trkpt><trkpt lat="45.4309955" lon="4.0540169"><ele>913.5999999999999</ele><time>2026-03-22T08:01:40.919Z</time></trkpt><trkpt lat="45.430905" lon="4.0540331"><ele>916.4000000000001</ele><time>2026-03-22T08:01:41.919Z</time></trkpt><trkpt lat="45.4308039" lon="4.0540654"><ele>919.2</ele><time>2026-03-22T08:01:42.919Z</time></trkpt><trkpt lat="45.4307054" lon="4.0540932"><ele>922.0</ele><time>2026-03-22T08:01:43.919Z</time></trkpt><trkpt lat="45.4305964" lon="4.0541149"><ele>922.2</ele><time>2026-03-22T08:01:44.919Z</time></trkpt><trkpt lat="45.4304912" lon="4.0541244"><ele>922.4000000000001</ele><time>2026-03-22T08:01:45.919Z</time></trkpt><trkpt lat="45.430407" lon="4.0541555"><ele>922.5999999999999</ele><time>2026-03-22T08:01:46.919Z</time></trkpt><trkpt lat="45.4302906" lon="4.0541851"><ele>922.8</ele><time>2026-03-22T08:01:47.919Z</time></trkpt><trkpt lat="45.4301826" lon="4.0542107"><ele>923.0</ele><time>2026-03-22T08:01:48.919Z</time></trkpt><trkpt lat="45.4300615" lon="4.0542293"><ele>924.5999999999999</ele><time>2026-03-22T08:01:49.919Z</time></trkpt><trkpt lat="45.4299509" lon="4.054247"><ele>926.1999999999999</ele><time>2026-03-22T08:01:50.919Z</time></trkpt><trkpt lat="45.4298318" lon="4.0542652"><ele>927.8</ele><time>2026-03-22T08:01:51.918Z</time></trkpt><trkpt lat="45.4297215" lon="4.054279"><ele>929.4</ele><time>2026-03-22T08:01:52.919Z</time></trkpt><trkpt lat="45.4296359" lon="4.0543024"><ele>931.0</ele><time>2026-03-22T08:01:53.918Z</time></trkpt><trkpt lat="45.429562" lon="4.0543252"><ele>932.1666666666666</ele><time>2026-03-22T08:01:54.918Z</time></trkpt><trkpt lat="45.4294949" lon="4.0543364"><ele>933.3333333333333</ele><time>2026-03-22T08:01:55.919Z</time></trkpt><trkpt lat="45.4294238" lon="4.0543206"><ele>934.5</ele><time>2026-03-22T08:01:56.918Z</time></trkpt><trkpt lat="45.4293492" lon="4.0542824"><ele>935.6666666666667</ele><time>2026-03-22T08:01:57.919Z</time></trkpt><trkpt lat="45.4292768" lon="4.0542192"><ele>936.8333333333334</ele><time>2026-03-22T08:01:58.919Z</time></trkpt><trkpt lat="45.4291958" lon="4.0541421"><ele>938.0</ele><time>2026-03-22T08:01:59.919Z</time></trkpt><trkpt lat="45.4291128" lon="4.054049"><ele>938.5</ele><time>2026-03-22T08:02:00.918Z</time></trkpt><trkpt lat="45.4290307" lon="4.0539226"><ele>939.0</ele><time>2026-03-22T08:02:01.919Z</time></trkpt><trkpt lat="45.4289443" lon="4.0537985"><ele>939.5</ele><time>2026-03-22T08:02:02.918Z</time></trkpt><trkpt lat="45.4288621" lon="4.0536435"><ele>940.0</ele><time>2026-03-22T08:02:03.919Z</time></trkpt><trkpt lat="45.4287789" lon="4.0535029"><ele>940.25</ele><time>2026-03-22T08:02:04.919Z</time></trkpt><trkpt lat="45.4286859" lon="4.0533515"><ele>940.5</ele><time>2026-03-22T08:02:05.918Z</time></trkpt><trkpt lat="45.4285957" lon="4.0532059"><ele>940.75</ele><time>2026-03-22T08:02:06.919Z</time></trkpt><trkpt lat="45.4284939" lon="4.0530559"><ele>941.0</ele><time>2026-03-22T08:02:07.919Z</time></trkpt><trkpt lat="45.4284064" lon="4.0529011"><ele>940.25</ele><time>2026-03-22T08:02:08.919Z</time></trkpt><trkpt lat="45.4283041" lon="4.0527468"><ele>939.5</ele><time>2026-03-22T08:02:09.919Z</time></trkpt><trkpt lat="45.4281931" lon="4.052594"><ele>938.75</ele><time>2026-03-22T08:02:10.919Z</time></trkpt><trkpt lat="45.4280914" lon="4.0524536"><ele>938.0</ele><time>2026-03-22T08:02:11.919Z</time></trkpt><trkpt lat="45.4279928" lon="4.0523091"><ele>937.5</ele><time>2026-03-22T08:02:12.919Z</time></trkpt><trkpt lat="45.4279028" lon="4.0521511"><ele>937.0</ele><time>2026-03-22T08:02:13.919Z</time></trkpt><trkpt lat="45.4278281" lon="4.0519832"><ele>936.5</ele><time>2026-03-22T08:02:14.919Z</time></trkpt><trkpt lat="45.4277529" lon="4.0518098"><ele>936.0</ele><time>2026-03-22T08:02:15.919Z</time></trkpt><trkpt lat="45.4276706" lon="4.0516493"><ele>936.0</ele><time>2026-03-22T08:02:16.919Z</time></trkpt><trkpt lat="45.4275774" lon="4.0515026"><ele>936.0</ele><time>2026-03-22T08:02:17.918Z</time></trkpt><trkpt lat="45.4274874" lon="4.0513739"><ele>936.0</ele><time>2026-03-22T08:02:18.918Z</time></trkpt><trkpt lat="45.4274068" lon="4.0512557"><ele>936.0</ele><time>2026-03-22T08:02:19.919Z</time></trkpt><trkpt lat="45.4273594" lon="4.0511655"><ele>936.0</ele><time>2026-03-22T08:02:20.918Z</time></trkpt><trkpt lat="45.4273054" lon="4.0510461"><ele>935.9999999999999</ele><time>2026-03-22T08:02:22.919Z</time></trkpt><trkpt lat="45.427229" lon="4.0510483"><ele>935.9999999999999</ele><time>2026-03-22T08:02:24.919Z</time></trkpt><trkpt lat="45.4271784" lon="4.0512082"><ele>936.0</ele><time>2026-03-22T08:02:26.918Z</time></trkpt><trkpt lat="45.4271024" lon="4.0513686"><ele>936.0</ele><time>2026-03-22T08:02:27.918Z</time></trkpt><trkpt lat="45.4270398" lon="4.0515144"><ele>936.5</ele><time>2026-03-22T08:02:28.919Z</time></trkpt><trkpt lat="45.4269666" lon="4.0516881"><ele>937.0</ele><time>2026-03-22T08:02:29.918Z</time></trkpt><trkpt lat="45.4268901" lon="4.0518909"><ele>937.5</ele><time>2026-03-22T08:02:30.919Z</time></trkpt><trkpt lat="45.4268128" lon="4.0520641"><ele>938.0</ele><time>2026-03-22T08:02:31.919Z</time></trkpt><trkpt lat="45.4267224" lon="4.0522831"><ele>939.0</ele><time>2026-03-22T08:02:32.919Z</time></trkpt><trkpt lat="45.4266381" lon="4.0525167"><ele>940.0</ele><time>2026-03-22T08:02:33.919Z</time></trkpt><trkpt lat="45.4265503" lon="4.0527547"><ele>941.0</ele><time>2026-03-22T08:02:34.919Z</time></trkpt><trkpt lat="45.4264709" lon="4.0529762"><ele>941.0</ele><time>2026-03-22T08:02:35.919Z</time></trkpt><trkpt lat="45.4263952" lon="4.0531977"><ele>941.0</ele><time>2026-03-22T08:02:36.919Z</time></trkpt><trkpt lat="45.4263148" lon="4.0534253"><ele>941.0</ele><time>2026-03-22T08:02:37.919Z</time></trkpt><trkpt lat="45.426239" lon="4.053641"><ele>942.0</ele><time>2026-03-22T08:02:38.919Z</time></trkpt><trkpt lat="45.4261638" lon="4.0538574"><ele>943.0</ele><time>2026-03-22T08:02:39.919Z</time></trkpt><trkpt lat="45.4260922" lon="4.0540451"><ele>944.0</ele><time>2026-03-22T08:02:40.919Z</time></trkpt><trkpt lat="45.42602" lon="4.05425"><ele>945.0</ele><time>2026-03-22T08:02:41.919Z</time></trkpt><trkpt lat="45.4259473" lon="4.054368"><ele>946.0000000000001</ele><time>2026-03-22T08:02:42.918Z</time></trkpt><trkpt lat="45.4258462" lon="4.0544779"><ele>947.0000000000001</ele><time>2026-03-22T08:02:44.919Z</time></trkpt><trkpt lat="45.4257752" lon="4.0545372"><ele>948.0</ele><time>2026-03-22T08:02:45.919Z</time></trkpt><trkpt lat="45.4256888" lon="4.054605"><ele>949.0</ele><time>2026-03-22T08:02:46.919Z</time></trkpt><trkpt lat="45.4256132" lon="4.0546641"><ele>949.0</ele><time>2026-03-22T08:02:47.919Z</time></trkpt><trkpt lat="45.4255355" lon="4.0546923"><ele>949.0000000000001</ele><time>2026-03-22T08:02:48.918Z</time></trkpt><trkpt lat="45.4254203" lon="4.0547583"><ele>949.0000000000001</ele><time>2026-03-22T08:02:49.918Z</time></trkpt><trkpt lat="45.425319" lon="4.0548022"><ele>949.0</ele><time>2026-03-22T08:02:50.919Z</time></trkpt><trkpt lat="45.4252069" lon="4.0548284"><ele>949.0</ele><time>2026-03-22T08:02:51.919Z</time></trkpt><trkpt lat="45.4251079" lon="4.0548386"><ele>949.0</ele><time>2026-03-22T08:02:52.919Z</time></trkpt><trkpt lat="45.4250085" lon="4.0548425"><ele>949.0000000000001</ele><time>2026-03-22T08:02:53.919Z</time></trkpt><trkpt lat="45.4249202" lon="4.0548"><ele>949.0000000000001</ele><time>2026-03-22T08:02:54.919Z</time></trkpt><trkpt lat="45.4248316" lon="4.0547805"><ele>949.0</ele><time>2026-03-22T08:02:55.918Z</time></trkpt><trkpt lat="45.424742" lon="4.0547914"><ele>949.0</ele><time>2026-03-22T08:02:56.919Z</time></trkpt><trkpt lat="45.4246291" lon="4.0548122"><ele>949.0</ele><time>2026-03-22T08:02:57.919Z</time></trkpt><trkpt lat="45.4245431" lon="4.0548162"><ele>949.0000000000001</ele><time>2026-03-22T08:02:58.919Z</time></trkpt><trkpt lat="45.4244008" lon="4.0548203"><ele>949.0000000000001</ele><time>2026-03-22T08:03:00.919Z</time></trkpt><trkpt lat="45.4242994" lon="4.0548156"><ele>949.0</ele><time>2026-03-22T08:03:01.919Z</time></trkpt><trkpt lat="45.4242134" lon="4.0548179"><ele>949.0</ele><time>2026-03-22T08:03:02.919Z</time></trkpt><trkpt lat="45.4241399" lon="4.0548245"><ele>948.9999999999999</ele><time>2026-03-22T08:03:03.919Z</time></trkpt><trkpt lat="45.4240577" lon="4.0547985"><ele>949.0</ele><time>2026-03-22T08:03:04.919Z</time></trkpt><trkpt lat="45.4239925" lon="4.0547756"><ele>949.0</ele><time>2026-03-22T08:03:05.919Z</time></trkpt><trkpt lat="45.4239076" lon="4.0547655"><ele>949.0</ele><time>2026-03-22T08:03:06.919Z</time></trkpt><trkpt lat="45.423831" lon="4.0547772"><ele>948.9999999999999</ele><time>2026-03-22T08:03:07.919Z</time></trkpt><trkpt lat="45.4236976" lon="4.0548104"><ele>949.0</ele><time>2026-03-22T08:03:08.919Z</time></trkpt><trkpt lat="45.4236063" lon="4.0548426"><ele>947.8000000000001</ele><time>2026-03-22T08:03:09.918Z</time></trkpt><trkpt lat="45.4235194" lon="4.0548786"><ele>946.6000000000001</ele><time>2026-03-22T08:03:10.918Z</time></trkpt><trkpt lat="45.4234349" lon="4.0549387"><ele>945.4</ele><time>2026-03-22T08:03:11.919Z</time></trkpt><trkpt lat="45.4233495" lon="4.05499"><ele>944.2</ele><time>2026-03-22T08:03:12.919Z</time></trkpt><trkpt lat="45.4232718" lon="4.0550018"><ele>943.0</ele><time>2026-03-22T08:03:13.918Z</time></trkpt><trkpt lat="45.4231452" lon="4.0549822"><ele>942.9999999999999</ele><time>2026-03-22T08:03:15.919Z</time></trkpt><trkpt lat="45.4230814" lon="4.0549921"><ele>943.0</ele><time>2026-03-22T08:03:16.919Z</time></trkpt><trkpt lat="45.4229506" lon="4.0550582"><ele>943.0</ele><time>2026-03-22T08:03:18.918Z</time></trkpt><trkpt lat="45.4228912" lon="4.0550892"><ele>943.0</ele><time>2026-03-22T08:03:19.919Z</time></trkpt><trkpt lat="45.4228487" lon="4.0551962"><ele>942.9999999999999</ele><time>2026-03-22T08:03:21.918Z</time></trkpt><trkpt lat="45.4228587" lon="4.0553151"><ele>943.0</ele><time>2026-03-22T08:03:22.919Z</time></trkpt><trkpt lat="45.4228634" lon="4.0554682"><ele>939.25</ele><time>2026-03-22T08:03:23.919Z</time></trkpt><trkpt lat="45.4228651" lon="4.0556282"><ele>935.5</ele><time>2026-03-22T08:03:24.919Z</time></trkpt><trkpt lat="45.4228663" lon="4.0557823"><ele>931.75</ele><time>2026-03-22T08:03:25.919Z</time></trkpt><trkpt lat="45.4228666" lon="4.0559231"><ele>928.0</ele><time>2026-03-22T08:03:26.919Z</time></trkpt><trkpt lat="45.422821" lon="4.0561397"><ele>928.0</ele><time>2026-03-22T08:03:28.919Z</time></trkpt><trkpt lat="45.4228029" lon="4.056228"><ele>928.0</ele><time>2026-03-22T08:03:29.919Z</time></trkpt><trkpt lat="45.4228341" lon="4.0563481"><ele>928.0</ele><time>2026-03-22T08:03:31.919Z</time></trkpt><trkpt lat="45.4228809" lon="4.0564868"><ele>928.0</ele><time>2026-03-22T08:03:32.919Z</time></trkpt><trkpt lat="45.4229071" lon="4.0565932"><ele>928.0</ele><time>2026-03-22T08:03:33.919Z</time></trkpt><trkpt lat="45.4229397" lon="4.0567409"><ele>927.8333333333333</ele><time>2026-03-22T08:03:34.919Z</time></trkpt><trkpt lat="45.4229713" lon="4.0568706"><ele>927.6666666666666</ele><time>2026-03-22T08:03:35.919Z</time></trkpt><trkpt lat="45.4230017" lon="4.0570062"><ele>927.5</ele><time>2026-03-22T08:03:36.919Z</time></trkpt><trkpt lat="45.4230354" lon="4.0571296"><ele>927.3333333333333</ele><time>2026-03-22T08:03:37.918Z</time></trkpt><trkpt lat="45.4230735" lon="4.0572344"><ele>927.1666666666666</ele><time>2026-03-22T08:03:38.918Z</time></trkpt><trkpt lat="45.4231164" lon="4.0573153"><ele>927.0</ele><time>2026-03-22T08:03:39.919Z</time></trkpt><trkpt lat="45.4231245" lon="4.0574434"><ele>926.3333333333334</ele><time>2026-03-22T08:03:41.919Z</time></trkpt><trkpt lat="45.42307" lon="4.0575079"><ele>925.6666666666667</ele><time>2026-03-22T08:03:43.918Z</time></trkpt><trkpt lat="45.4230305" lon="4.0576367"><ele>925.0</ele><time>2026-03-22T08:03:45.918Z</time></trkpt><trkpt lat="45.4229834" lon="4.0577046"><ele>924.3333333333334</ele><time>2026-03-22T08:03:46.919Z</time></trkpt><trkpt lat="45.4229062" lon="4.0577786"><ele>923.6666666666667</ele><time>2026-03-22T08:03:47.919Z</time></trkpt><trkpt lat="45.4228117" lon="4.0578461"><ele>923.0</ele><time>2026-03-22T08:03:48.918Z</time></trkpt><trkpt lat="45.422718" lon="4.0579101"><ele>923.0000000000001</ele><time>2026-03-22T08:03:49.919Z</time></trkpt><trkpt lat="45.4226231" lon="4.0579554"><ele>923.0</ele><time>2026-03-22T08:03:50.919Z</time></trkpt><trkpt lat="45.4225319" lon="4.057982"><ele>923.0</ele><time>2026-03-22T08:03:51.919Z</time></trkpt><trkpt lat="45.422444" lon="4.0579685"><ele>923.0</ele><time>2026-03-22T08:03:52.919Z</time></trkpt><trkpt lat="45.4223619" lon="4.0579547"><ele>923.0000000000001</ele><time>2026-03-22T08:03:53.919Z</time></trkpt><trkpt lat="45.4222826" lon="4.0579279"><ele>923.0</ele><time>2026-03-22T08:03:54.919Z</time></trkpt><trkpt lat="45.4221818" lon="4.0579397"><ele>920.5000000000001</ele><time>2026-03-22T08:03:55.919Z</time></trkpt><trkpt lat="45.4220811" lon="4.0579389"><ele>918.0</ele><time>2026-03-22T08:03:56.919Z</time></trkpt><trkpt lat="45.4219884" lon="4.0579067"><ele>915.5</ele><time>2026-03-22T08:03:57.919Z</time></trkpt><trkpt lat="45.4218996" lon="4.0578697"><ele>913.0</ele><time>2026-03-22T08:03:58.918Z</time></trkpt><trkpt lat="45.4218197" lon="4.057813"><ele>910.5000000000001</ele><time>2026-03-22T08:03:59.918Z</time></trkpt><trkpt lat="45.4217675" lon="4.0577555"><ele>908.0</ele><time>2026-03-22T08:04:00.919Z</time></trkpt><trkpt lat="45.4216965" lon="4.0577007"><ele>908.0</ele><time>2026-03-22T08:04:02.919Z</time></trkpt><trkpt lat="45.4216396" lon="4.057742"><ele>908.0</ele><time>2026-03-22T08:04:04.919Z</time></trkpt><trkpt lat="45.4216284" lon="4.0578397"><ele>908.0</ele><time>2026-03-22T08:04:05.919Z</time></trkpt><trkpt lat="45.421616" lon="4.0579702"><ele>908.0</ele><time>2026-03-22T08:04:06.919Z</time></trkpt><trkpt lat="45.421601" lon="4.0581647"><ele>908.0</ele><time>2026-03-22T08:04:07.919Z</time></trkpt><trkpt lat="45.4215861" lon="4.0583532"><ele>907.5999999999999</ele><time>2026-03-22T08:04:08.919Z</time></trkpt><trkpt lat="45.4215713" lon="4.0585193"><ele>907.1999999999999</ele><time>2026-03-22T08:04:09.919Z</time></trkpt><trkpt lat="45.421546" lon="4.0586389"><ele>906.8</ele><time>2026-03-22T08:04:10.919Z</time></trkpt><trkpt lat="45.4214909" lon="4.0587848"><ele>906.4</ele><time>2026-03-22T08:04:12.919Z</time></trkpt><trkpt lat="45.4214202" lon="4.0588143"><ele>906.0</ele><time>2026-03-22T08:04:13.919Z</time></trkpt><trkpt lat="45.4213362" lon="4.0588579"><ele>904.0</ele><time>2026-03-22T08:04:15.919Z</time></trkpt><trkpt lat="45.421274" lon="4.0588832"><ele>902.0</ele><time>2026-03-22T08:04:16.919Z</time></trkpt><trkpt lat="45.4211941" lon="4.0589054"><ele>900.0</ele><time>2026-03-22T08:04:17.919Z</time></trkpt><trkpt lat="45.4211076" lon="4.0589144"><ele>898.0</ele><time>2026-03-22T08:04:18.919Z</time></trkpt><trkpt lat="45.4210107" lon="4.0589279"><ele>896.0</ele><time>2026-03-22T08:04:19.919Z</time></trkpt><trkpt lat="45.4209245" lon="4.0589361"><ele>894.0</ele><time>2026-03-22T08:04:20.919Z</time></trkpt><trkpt lat="45.4208549" lon="4.05895"><ele>894.0</ele><time>2026-03-22T08:04:21.919Z</time></trkpt><trkpt lat="45.420773" lon="4.0589771"><ele>894.0</ele><time>2026-03-22T08:04:22.919Z</time></trkpt><trkpt lat="45.4206778" lon="4.0590091"><ele>894.0</ele><time>2026-03-22T08:04:23.919Z</time></trkpt><trkpt lat="45.4205809" lon="4.0590506"><ele>894.0</ele><time>2026-03-22T08:04:24.918Z</time></trkpt><trkpt lat="45.4204971" lon="4.0590485"><ele>894.0</ele><time>2026-03-22T08:04:25.919Z</time></trkpt><trkpt lat="45.4204317" lon="4.0590521"><ele>894.0</ele><time>2026-03-22T08:04:26.919Z</time></trkpt><trkpt lat="45.4203445" lon="4.0589932"><ele>892.1666666666666</ele><time>2026-03-22T08:04:28.919Z</time></trkpt><trkpt lat="45.4202862" lon="4.0589235"><ele>890.3333333333333</ele><time>2026-03-22T08:04:30.919Z</time></trkpt><trkpt lat="45.4202446" lon="4.0588309"><ele>888.5</ele><time>2026-03-22T08:04:33.918Z</time></trkpt><trkpt lat="45.4201614" lon="4.0588412"><ele>886.6666666666666</ele><time>2026-03-22T08:04:41.919Z</time></trkpt><trkpt lat="45.4200773" lon="4.0589261"><ele>884.8333333333333</ele><time>2026-03-22T08:04:44.919Z</time></trkpt><trkpt lat="45.4200114" lon="4.0589295"><ele>883.0</ele><time>2026-03-22T08:04:45.919Z</time></trkpt><trkpt lat="45.4199387" lon="4.0589441"><ele>882.9999999999999</ele><time>2026-03-22T08:04:46.919Z</time></trkpt><trkpt lat="45.4198621" lon="4.0589621"><ele>883.0</ele><time>2026-03-22T08:04:47.918Z</time></trkpt><trkpt lat="45.4197762" lon="4.0589768"><ele>883.0</ele><time>2026-03-22T08:04:48.919Z</time></trkpt><trkpt lat="45.4196832" lon="4.058997"><ele>883.0</ele><time>2026-03-22T08:04:49.919Z</time></trkpt><trkpt lat="45.4195959" lon="4.0590258"><ele>882.9999999999999</ele><time>2026-03-22T08:04:50.918Z</time></trkpt><trkpt lat="45.4195134" lon="4.0590602"><ele>883.0</ele><time>2026-03-22T08:04:51.919Z</time></trkpt><trkpt lat="45.4194427" lon="4.0590748"><ele>881.8333333333333</ele><time>2026-03-22T08:04:52.919Z</time></trkpt><trkpt lat="45.4193757" lon="4.0590534"><ele>880.6666666666666</ele><time>2026-03-22T08:04:53.919Z</time></trkpt><trkpt lat="45.4192747" lon="4.0589983"><ele>879.5</ele><time>2026-03-22T08:04:55.919Z</time></trkpt><trkpt lat="45.4191695" lon="4.0590221"><ele>878.3333333333333</ele><time>2026-03-22T08:04:57.918Z</time></trkpt><trkpt lat="45.4191006" lon="4.0590587"><ele>877.1666666666666</ele><time>2026-03-22T08:04:58.919Z</time></trkpt><trkpt lat="45.4190259" lon="4.0590903"><ele>876.0</ele><time>2026-03-22T08:04:59.918Z</time></trkpt><trkpt lat="45.4189376" lon="4.059125"><ele>875.1999999999999</ele><time>2026-03-22T08:05:00.919Z</time></trkpt><trkpt lat="45.4188442" lon="4.0591446"><ele>874.3999999999999</ele><time>2026-03-22T08:05:01.918Z</time></trkpt><trkpt lat="45.4187587" lon="4.0591765"><ele>873.6</ele><time>2026-03-22T08:05:02.919Z</time></trkpt><trkpt lat="45.4186869" lon="4.0592389"><ele>872.8</ele><time>2026-03-22T08:05:03.919Z</time></trkpt><trkpt lat="45.4185949" lon="4.0593018"><ele>872.0</ele><time>2026-03-22T08:05:04.919Z</time></trkpt><trkpt lat="45.4185183" lon="4.059344"><ele>870.5000000000001</ele><time>2026-03-22T08:05:05.919Z</time></trkpt><trkpt lat="45.4184508" lon="4.0594042"><ele>869.0</ele><time>2026-03-22T08:05:06.919Z</time></trkpt><trkpt lat="45.4183772" lon="4.0594611"><ele>867.5</ele><time>2026-03-22T08:05:07.919Z</time></trkpt><trkpt lat="45.4183135" lon="4.0594962"><ele>866.0</ele><time>2026-03-22T08:05:08.919Z</time></trkpt><trkpt lat="45.4182481" lon="4.0594806"><ele>864.5000000000001</ele><time>2026-03-22T08:05:09.919Z</time></trkpt><trkpt lat="45.4181456" lon="4.0594028"><ele>863.0</ele><time>2026-03-22T08:05:11.919Z</time></trkpt><trkpt lat="45.4180952" lon="4.0593349"><ele>863.0</ele><time>2026-03-22T08:05:12.919Z</time></trkpt><trkpt lat="45.4180346" lon="4.0592128"><ele>863.0</ele><time>2026-03-22T08:05:13.919Z</time></trkpt><trkpt lat="45.4179729" lon="4.0591081"><ele>863.0</ele><time>2026-03-22T08:05:14.919Z</time></trkpt><trkpt lat="45.4179153" lon="4.0590103"><ele>863.0</ele><time>2026-03-22T08:05:15.919Z</time></trkpt><trkpt lat="45.4178639" lon="4.0589085"><ele>863.0</ele><time>2026-03-22T08:05:16.919Z</time></trkpt><trkpt lat="45.4177114" lon="4.0588495"><ele>861.0000000000001</ele><time>2026-03-22T08:05:18.919Z</time></trkpt><trkpt lat="45.4176338" lon="4.05884"><ele>859.0</ele><time>2026-03-22T08:05:19.919Z</time></trkpt><trkpt lat="45.4175683" lon="4.0588502"><ele>857.0</ele><time>2026-03-22T08:05:20.919Z</time></trkpt><trkpt lat="45.417496" lon="4.0588213"><ele>855.0</ele><time>2026-03-22T08:05:21.919Z</time></trkpt><trkpt lat="45.4174104" lon="4.0587792"><ele>853.0000000000001</ele><time>2026-03-22T08:05:22.918Z</time></trkpt><trkpt lat="45.4173324" lon="4.0587133"><ele>851.0</ele><time>2026-03-22T08:05:23.919Z</time></trkpt><trkpt lat="45.4172417" lon="4.0586308"><ele>851.1999999999999</ele><time>2026-03-22T08:05:24.919Z</time></trkpt><trkpt lat="45.4171437" lon="4.0585483"><ele>851.4</ele><time>2026-03-22T08:05:25.918Z</time></trkpt><trkpt lat="45.4170548" lon="4.0585238"><ele>851.6</ele><time>2026-03-22T08:05:26.919Z</time></trkpt><trkpt lat="45.416973" lon="4.0585058"><ele>851.8</ele><time>2026-03-22T08:05:27.918Z</time></trkpt><trkpt lat="45.4168632" lon="4.0585346"><ele>852.0</ele><time>2026-03-22T08:05:29.919Z</time></trkpt><trkpt lat="45.4167319" lon="4.0586098"><ele>852.0</ele><time>2026-03-22T08:05:31.919Z</time></trkpt><trkpt lat="45.4166558" lon="4.0586738"><ele>852.0</ele><time>2026-03-22T08:05:32.919Z</time></trkpt><trkpt lat="45.4165682" lon="4.0587448"><ele>852.0</ele><time>2026-03-22T08:05:33.919Z</time></trkpt><trkpt lat="45.4164908" lon="4.058845"><ele>852.0</ele><time>2026-03-22T08:05:34.918Z</time></trkpt><trkpt lat="45.416421" lon="4.0589968"><ele>852.0</ele><time>2026-03-22T08:05:35.919Z</time></trkpt><trkpt lat="45.4163322" lon="4.0591077"><ele>854.6</ele><time>2026-03-22T08:05:36.919Z</time></trkpt><trkpt lat="45.4162527" lon="4.0592205"><ele>857.2</ele><time>2026-03-22T08:05:37.919Z</time></trkpt><trkpt lat="45.4161671" lon="4.0592856"><ele>859.8</ele><time>2026-03-22T08:05:38.919Z</time></trkpt><trkpt lat="45.4160757" lon="4.0593201"><ele>862.4</ele><time>2026-03-22T08:05:39.919Z</time></trkpt><trkpt lat="45.415974" lon="4.0593101"><ele>865.0</ele><time>2026-03-22T08:05:40.919Z</time></trkpt><trkpt lat="45.4158812" lon="4.0592853"><ele>865.0</ele><time>2026-03-22T08:05:41.918Z</time></trkpt><trkpt lat="45.415772" lon="4.0592628"><ele>865.0</ele><time>2026-03-22T08:05:42.918Z</time></trkpt><trkpt lat="45.4156822" lon="4.05928"><ele>865.0</ele><time>2026-03-22T08:05:43.919Z</time></trkpt><trkpt lat="45.4155659" lon="4.0593098"><ele>865.0</ele><time>2026-03-22T08:05:44.919Z</time></trkpt><trkpt lat="45.4154665" lon="4.0593386"><ele>865.0</ele><time>2026-03-22T08:05:45.919Z</time></trkpt><trkpt lat="45.4153857" lon="4.0593182"><ele>866.2</ele><time>2026-03-22T08:05:46.919Z</time></trkpt><trkpt lat="45.4153239" lon="4.059256"><ele>867.4</ele><time>2026-03-22T08:05:47.919Z</time></trkpt><trkpt lat="45.4152682" lon="4.0591722"><ele>868.5999999999999</ele><time>2026-03-22T08:05:48.919Z</time></trkpt><trkpt lat="45.4151845" lon="4.0590983"><ele>869.8</ele><time>2026-03-22T08:05:49.919Z</time></trkpt><trkpt lat="45.4150842" lon="4.0590256"><ele>871.0</ele><time>2026-03-22T08:05:50.918Z</time></trkpt><trkpt lat="45.4149818" lon="4.0589588"><ele>871.5</ele><time>2026-03-22T08:05:51.919Z</time></trkpt><trkpt lat="45.4148862" lon="4.0588936"><ele>872.0</ele><time>2026-03-22T08:05:52.919Z</time></trkpt><trkpt lat="45.4147507" lon="4.0588885"><ele>872.5</ele><time>2026-03-22T08:05:53.919Z</time></trkpt><trkpt lat="45.4146528" lon="4.0588314"><ele>873.0</ele><time>2026-03-22T08:05:54.919Z</time></trkpt><trkpt lat="45.41456" lon="4.0587537"><ele>874.3333333333333</ele><time>2026-03-22T08:05:55.919Z</time></trkpt><trkpt lat="45.4144835" lon="4.0586682"><ele>875.6666666666666</ele><time>2026-03-22T08:05:56.919Z</time></trkpt><trkpt lat="45.4144202" lon="4.0585679"><ele>877.0</ele><time>2026-03-22T08:05:57.919Z</time></trkpt><trkpt lat="45.4110908" lon="4.0559232"><ele>881.6666666666666</ele><time>2026-03-22T08:06:28.919Z</time></trkpt><trkpt lat="45.4110183" lon="4.0559076"><ele>886.3333333333333</ele><time>2026-03-22T08:06:29.919Z</time></trkpt><trkpt lat="45.4109549" lon="4.0559021"><ele>891.0</ele><time>2026-03-22T08:06:30.919Z</time></trkpt><trkpt lat="45.4108742" lon="4.0558767"><ele>895.6666666666667</ele><time>2026-03-22T08:06:31.919Z</time></trkpt><trkpt lat="45.4107786" lon="4.0558451"><ele>900.3333333333334</ele><time>2026-03-22T08:06:32.919Z</time></trkpt><trkpt lat="45.4106681" lon="4.055819"><ele>905.0</ele><time>2026-03-22T08:06:33.918Z</time></trkpt><trkpt lat="45.4105552" lon="4.0558025"><ele>907.0</ele><time>2026-03-22T08:06:34.918Z</time></trkpt><trkpt lat="45.410458" lon="4.0557961"><ele>909.0</ele><time>2026-03-22T08:06:35.919Z</time></trkpt><trkpt lat="45.4102211" lon="4.0558268"><ele>911.0</ele><time>2026-03-22T08:06:37.919Z</time></trkpt><trkpt lat="45.4101177" lon="4.0558489"><ele>913.0</ele><time>2026-03-22T08:06:38.919Z</time></trkpt><trkpt lat="45.4100176" lon="4.0558565"><ele>913.0</ele><time>2026-03-22T08:06:39.919Z</time></trkpt><trkpt lat="45.4099171" lon="4.0558643"><ele>913.0</ele><time>2026-03-22T08:06:40.919Z</time></trkpt><trkpt lat="45.4098063" lon="4.0558819"><ele>913.0</ele><time>2026-03-22T08:06:41.919Z</time></trkpt><trkpt lat="45.4096909" lon="4.0558897"><ele>913.0</ele><time>2026-03-22T08:06:42.919Z</time></trkpt><trkpt lat="45.4095694" lon="4.0559085"><ele>914.5</ele><time>2026-03-22T08:06:43.918Z</time></trkpt><trkpt lat="45.4094348" lon="4.0559472"><ele>916.0</ele><time>2026-03-22T08:06:44.919Z</time></trkpt><trkpt lat="45.4092937" lon="4.0559918"><ele>917.5</ele><time>2026-03-22T08:06:45.919Z</time></trkpt><trkpt lat="45.4091543" lon="4.0560393"><ele>919.0</ele><time>2026-03-22T08:06:46.919Z</time></trkpt><trkpt lat="45.4090111" lon="4.0560783"><ele>919.0</ele><time>2026-03-22T08:06:47.918Z</time></trkpt><trkpt lat="45.4088558" lon="4.0560978"><ele>919.0</ele><time>2026-03-22T08:06:48.918Z</time></trkpt><trkpt lat="45.4087121" lon="4.0561179"><ele>919.0</ele><time>2026-03-22T08:06:49.919Z</time></trkpt><trkpt lat="45.4085768" lon="4.0561245"><ele>919.0</ele><time>2026-03-22T08:06:50.919Z</time></trkpt><trkpt lat="45.4084376" lon="4.0561365"><ele>920.75</ele><time>2026-03-22T08:06:51.919Z</time></trkpt><trkpt lat="45.4083056" lon="4.0561631"><ele>922.5</ele><time>2026-03-22T08:06:52.919Z</time></trkpt><trkpt lat="45.4081681" lon="4.0562191"><ele>924.25</ele><time>2026-03-22T08:06:53.918Z</time></trkpt><trkpt lat="45.4080586" lon="4.0562686"><ele>926.0</ele><time>2026-03-22T08:06:54.919Z</time></trkpt><trkpt lat="45.4079877" lon="4.0563186"><ele>928.0</ele><time>2026-03-22T08:06:55.919Z</time></trkpt><trkpt lat="45.4079228" lon="4.0563469"><ele>929.9999999999999</ele><time>2026-03-22T08:06:56.919Z</time></trkpt><trkpt lat="45.4077746" lon="4.0563133"><ele>931.9999999999999</ele><time>2026-03-22T08:07:07.919Z</time></trkpt><trkpt lat="45.4076872" lon="4.0562697"><ele>934.0</ele><time>2026-03-22T08:07:09.919Z</time></trkpt><trkpt lat="45.4075955" lon="4.0562295"><ele>936.0</ele><time>2026-03-22T08:07:11.918Z</time></trkpt><trkpt lat="45.4075016" lon="4.0561485"><ele>936.0</ele><time>2026-03-22T08:07:12.919Z</time></trkpt><trkpt lat="45.4074146" lon="4.0560565"><ele>935.9999999999999</ele><time>2026-03-22T08:07:13.918Z</time></trkpt><trkpt lat="45.4073249" lon="4.0559465"><ele>935.9999999999999</ele><time>2026-03-22T08:07:14.919Z</time></trkpt><trkpt lat="45.407254" lon="4.0558517"><ele>936.0</ele><time>2026-03-22T08:07:15.919Z</time></trkpt><trkpt lat="45.4072" lon="4.0557551"><ele>936.0</ele><time>2026-03-22T08:07:16.918Z</time></trkpt><trkpt lat="45.4071509" lon="4.0556122"><ele>940.75</ele><time>2026-03-22T08:07:17.919Z</time></trkpt><trkpt lat="45.4070754" lon="4.0554145"><ele>945.5</ele><time>2026-03-22T08:07:19.919Z</time></trkpt><trkpt lat="45.4070203" lon="4.0553066"><ele>950.25</ele><time>2026-03-22T08:07:22.919Z</time></trkpt><trkpt lat="45.4069647" lon="4.0553568"><ele>955.0</ele><time>2026-03-22T08:07:24.919Z</time></trkpt><trkpt lat="45.4068683" lon="4.0555506"><ele>955.0</ele><time>2026-03-22T08:07:26.919Z</time></trkpt><trkpt lat="45.4067662" lon="4.0556836"><ele>955.0</ele><time>2026-03-22T08:07:27.919Z</time></trkpt><trkpt lat="45.4066851" lon="4.0558176"><ele>955.0</ele><time>2026-03-22T08:07:28.919Z</time></trkpt><trkpt lat="45.4065946" lon="4.0558973"><ele>955.0</ele><time>2026-03-22T08:07:29.919Z</time></trkpt><trkpt lat="45.4065059" lon="4.0559659"><ele>955.6</ele><time>2026-03-22T08:07:30.919Z</time></trkpt><trkpt lat="45.4064252" lon="4.0560276"><ele>956.2</ele><time>2026-03-22T08:07:31.919Z</time></trkpt><trkpt lat="45.4063344" lon="4.056076"><ele>956.8</ele><time>2026-03-22T08:07:32.919Z</time></trkpt><trkpt lat="45.4062191" lon="4.0560926"><ele>957.4</ele><time>2026-03-22T08:07:34.918Z</time></trkpt><trkpt lat="45.406132" lon="4.0560522"><ele>958.0</ele><time>2026-03-22T08:07:35.919Z</time></trkpt><trkpt lat="45.406044" lon="4.0560223"><ele>958.0</ele><time>2026-03-22T08:07:36.919Z</time></trkpt><trkpt lat="45.4059533" lon="4.0559933"><ele>958.0</ele><time>2026-03-22T08:07:37.919Z</time></trkpt><trkpt lat="45.4058518" lon="4.0559519"><ele>958.0</ele><time>2026-03-22T08:07:38.918Z</time></trkpt><trkpt lat="45.4055691" lon="4.0559384"><ele>959.25</ele><time>2026-03-22T08:07:40.919Z</time></trkpt><trkpt lat="45.4054147" lon="4.0559142"><ele>960.5</ele><time>2026-03-22T08:07:41.919Z</time></trkpt><trkpt lat="45.4052865" lon="4.0559311"><ele>961.75</ele><time>2026-03-22T08:07:42.919Z</time></trkpt><trkpt lat="45.4051771" lon="4.0559414"><ele>963.0</ele><time>2026-03-22T08:07:43.919Z</time></trkpt><trkpt lat="45.4050835" lon="4.0559653"><ele>963.0</ele><time>2026-03-22T08:07:44.919Z</time></trkpt><trkpt lat="45.4049678" lon="4.0559945"><ele>963.0</ele><time>2026-03-22T08:07:45.919Z</time></trkpt><trkpt lat="45.4048849" lon="4.0559955"><ele>963.0</ele><time>2026-03-22T08:07:46.919Z</time></trkpt><trkpt lat="45.4047591" lon="4.0559798"><ele>963.0</ele><time>2026-03-22T08:07:47.919Z</time></trkpt><trkpt lat="45.4046395" lon="4.0559915"><ele>963.0</ele><time>2026-03-22T08:07:48.919Z</time></trkpt><trkpt lat="45.4045013" lon="4.0559725"><ele>963.0</ele><time>2026-03-22T08:07:49.919Z</time></trkpt><trkpt lat="45.4043917" lon="4.0559207"><ele>963.0</ele><time>2026-03-22T08:07:50.919Z</time></trkpt><trkpt lat="45.4042725" lon="4.0558817"><ele>963.0</ele><time>2026-03-22T08:07:51.919Z</time></trkpt><trkpt lat="45.4041833" lon="4.0558382"><ele>963.0</ele><time>2026-03-22T08:07:52.918Z</time></trkpt><trkpt lat="45.404084" lon="4.0557951"><ele>963.0</ele><time>2026-03-22T08:07:53.918Z</time></trkpt><trkpt lat="45.4039849" lon="4.055722"><ele>962.75</ele><time>2026-03-22T08:07:54.919Z</time></trkpt><trkpt lat="45.403868" lon="4.0556167"><ele>962.5</ele><time>2026-03-22T08:07:55.919Z</time></trkpt><trkpt lat="45.403774" lon="4.055532"><ele>962.25</ele><time>2026-03-22T08:07:56.919Z</time></trkpt><trkpt lat="45.4036999" lon="4.0554245"><ele>962.0</ele><time>2026-03-22T08:07:57.919Z</time></trkpt><trkpt lat="45.4036183" lon="4.0553256"><ele>962.0</ele><time>2026-03-22T08:07:58.918Z</time></trkpt><trkpt lat="45.4035134" lon="4.055182"><ele>962.0</ele><time>2026-03-22T08:07:59.918Z</time></trkpt><trkpt lat="45.4033298" lon="4.0549966"><ele>962.0</ele><time>2026-03-22T08:08:01.918Z</time></trkpt><trkpt lat="45.4032373" lon="4.0549146"><ele>963.8</ele><time>2026-03-22T08:08:02.919Z</time></trkpt><trkpt lat="45.4031496" lon="4.0548231"><ele>965.6</ele><time>2026-03-22T08:08:03.919Z</time></trkpt><trkpt lat="45.403116" lon="4.0547438"><ele>967.3999999999999</ele><time>2026-03-22T08:08:04.919Z</time></trkpt><trkpt lat="45.4030526" lon="4.0546664"><ele>969.1999999999999</ele><time>2026-03-22T08:08:05.918Z</time></trkpt><trkpt lat="45.4029299" lon="4.0546213"><ele>971.0</ele><time>2026-03-22T08:08:07.919Z</time></trkpt><trkpt lat="45.4028144" lon="4.0546221"><ele>971.0</ele><time>2026-03-22T08:08:09.919Z</time></trkpt><trkpt lat="45.402713" lon="4.0545429"><ele>970.9999999999999</ele><time>2026-03-22T08:08:11.918Z</time></trkpt><trkpt lat="45.4026415" lon="4.0545156"><ele>970.9999999999999</ele><time>2026-03-22T08:08:12.919Z</time></trkpt><trkpt lat="45.4025705" lon="4.0544817"><ele>971.0</ele><time>2026-03-22T08:08:13.919Z</time></trkpt><trkpt lat="45.4023971" lon="4.0544698"><ele>971.0</ele><time>2026-03-22T08:08:14.919Z</time></trkpt><trkpt lat="45.4022931" lon="4.0544293"><ele>971.0</ele><time>2026-03-22T08:08:15.919Z</time></trkpt><trkpt lat="45.402184" lon="4.054393"><ele>970.9999999999999</ele><time>2026-03-22T08:08:16.919Z</time></trkpt><trkpt lat="45.4020875" lon="4.0543719"><ele>970.9999999999999</ele><time>2026-03-22T08:08:17.919Z</time></trkpt><trkpt lat="45.4019896" lon="4.0543391"><ele>971.0</ele><time>2026-03-22T08:08:18.918Z</time></trkpt><trkpt lat="45.4018867" lon="4.0543004"><ele>971.0</ele><time>2026-03-22T08:08:19.919Z</time></trkpt><trkpt lat="45.401805" lon="4.0542681"><ele>971.25</ele><time>2026-03-22T08:08:20.919Z</time></trkpt><trkpt lat="45.4016146" lon="4.0541723"><ele>971.5</ele><time>2026-03-22T08:08:22.918Z</time></trkpt><trkpt lat="45.4014968" lon="4.0540962"><ele>971.75</ele><time>2026-03-22T08:08:23.919Z</time></trkpt><trkpt lat="45.4013948" lon="4.0540354"><ele>972.0</ele><time>2026-03-22T08:08:24.919Z</time></trkpt><trkpt lat="45.401287" lon="4.05396"><ele>971.4000000000001</ele><time>2026-03-22T08:08:25.919Z</time></trkpt><trkpt lat="45.4012236" lon="4.0538729"><ele>970.8000000000001</ele><time>2026-03-22T08:08:26.919Z</time></trkpt><trkpt lat="45.401151" lon="4.0537098"><ele>970.2</ele><time>2026-03-22T08:08:27.919Z</time></trkpt><trkpt lat="45.4010773" lon="4.0536"><ele>969.6</ele><time>2026-03-22T08:08:28.919Z</time></trkpt><trkpt lat="45.4009938" lon="4.0535213"><ele>969.0</ele><time>2026-03-22T08:08:29.919Z</time></trkpt><trkpt lat="45.4009112" lon="4.0534517"><ele>969.0</ele><time>2026-03-22T08:08:30.919Z</time></trkpt><trkpt lat="45.4008292" lon="4.0533726"><ele>969.0000000000001</ele><time>2026-03-22T08:08:31.918Z</time></trkpt><trkpt lat="45.4007771" lon="4.0532741"><ele>969.0000000000001</ele><time>2026-03-22T08:08:32.919Z</time></trkpt><trkpt lat="45.4006708" lon="4.053149"><ele>969.0</ele><time>2026-03-22T08:08:34.919Z</time></trkpt><trkpt lat="45.4006026" lon="4.0530524"><ele>969.0</ele><time>2026-03-22T08:08:35.919Z</time></trkpt><trkpt lat="45.4005577" lon="4.0529575"><ele>969.0</ele><time>2026-03-22T08:08:36.919Z</time></trkpt><trkpt lat="45.4004848" lon="4.052867"><ele>969.0000000000001</ele><time>2026-03-22T08:08:37.919Z</time></trkpt><trkpt lat="45.4004023" lon="4.0527501"><ele>969.0000000000001</ele><time>2026-03-22T08:08:38.918Z</time></trkpt><trkpt lat="45.4003351" lon="4.0526552"><ele>969.0</ele><time>2026-03-22T08:08:39.919Z</time></trkpt><trkpt lat="45.4002637" lon="4.0525434"><ele>969.0</ele><time>2026-03-22T08:08:40.919Z</time></trkpt><trkpt lat="45.400211" lon="4.0524809"><ele>969.0</ele><time>2026-03-22T08:08:41.919Z</time></trkpt></trkseg></trk></gpx>